Terminal Aerodrome Forecast
Issued by NWS Spokane, WA

Home | Current Version | Previous Version | Text Only | Print | Product List | Glossary On
Versions: 1 2 3 4 5 6 7 8 9 10 11 12 13 14
000
FTUS46 KOTX 182320
TAFEAT
TAF
KEAT 182320Z 1900/1924 30015G20KT P6SM BKN200
     FM190200 30012KT P6SM BKN200
     FM190700 31006KT P6SM FEW150 BKN200
     FM192000 29012G20KT P6SM SCT080 BKN100 OVC200=

USA.gov is the U.S. government's official web portal to all federal, state and local government web resources and services.